createdAt,value
2022-10-22T00:00:55.898Z,20.90
2022-10-22T00:03:22.431Z,21.87
2022-10-22T00:05:48.835Z,21.23
2022-10-22T00:08:15.232Z,24.30
2022-10-22T00:10:41.922Z,22.17
2022-10-22T00:13:08.306Z,22.13
2022-10-22T00:15:34.827Z,22.98
2022-10-22T00:18:01.320Z,22.92
2022-10-22T00:20:27.761Z,24.10
2022-10-22T00:22:54.277Z,23.98
2022-10-22T00:25:20.700Z,23.70
2022-10-22T00:27:47.108Z,24.38
2022-10-22T00:30:13.730Z,24.40
2022-10-22T00:32:40.244Z,23.85
2022-10-22T00:35:07.642Z,23.27
2022-10-22T00:37:34.125Z,24.10
2022-10-22T00:40:00.490Z,23.85
2022-10-22T00:42:30.320Z,23.20
2022-10-22T00:45:11.585Z,25.30
2022-10-22T00:48:01.525Z,23.75
2022-10-22T00:50:38.352Z,23.27
2022-10-22T00:53:08.611Z,23.65
2022-10-22T00:55:35.549Z,23.80
2022-10-22T00:58:02.488Z,24.52
2022-10-22T01:00:29.046Z,24.80
2022-10-22T01:02:55.847Z,24.33
2022-10-22T01:05:22.853Z,23.65
2022-10-22T01:07:52.005Z,23.38
2022-10-22T01:10:30.208Z,24.90
2022-10-22T01:13:20.476Z,25.00
2022-10-22T01:16:03.772Z,23.65
2022-10-22T01:18:49.344Z,21.73
2022-10-22T01:21:24.806Z,22.98
2022-10-22T01:24:06.079Z,22.80
2022-10-22T01:27:12.964Z,23.55
2022-10-22T01:29:53.019Z,24.23
2022-10-22T01:32:23.254Z,22.38
2022-10-22T01:34:54.180Z,23.13
2022-10-22T01:37:24.022Z,22.70
2022-10-22T01:39:51.862Z,22.77
2022-10-22T01:42:18.331Z,22.42
2022-10-22T01:44:44.973Z,23.23
2022-10-22T01:47:21.214Z,21.43
2022-10-22T01:50:06.096Z,22.08
2022-10-22T01:52:57.918Z,22.35
2022-10-22T01:55:35.649Z,22.50
2022-10-22T01:58:15.375Z,23.27
2022-10-22T02:00:59.285Z,23.42
2022-10-22T02:03:35.986Z,24.30
2022-10-22T02:06:09.864Z,24.45
2022-10-22T02:08:37.277Z,22.95
2022-10-22T02:11:04.853Z,22.70
2022-10-22T02:13:41.475Z,23.02
2022-10-22T02:16:11.742Z,24.92
2022-10-22T02:18:42.907Z,23.88
2022-10-22T02:21:09.691Z,22.23
2022-10-22T02:23:36.467Z,23.80
2022-10-22T02:26:24.896Z,23.35
2022-10-22T02:29:06.656Z,22.38
2022-10-22T02:31:37.987Z,21.88
2022-10-22T02:34:10.137Z,23.40
2022-10-22T02:36:38.189Z,22.63
2022-10-22T02:39:08.324Z,23.42
2022-10-22T02:41:35.209Z,22.02
2022-10-22T02:44:03.030Z,24.05
2022-10-22T02:46:29.392Z,22.13
2022-10-22T02:48:55.780Z,23.45
2022-10-22T02:51:22.227Z,22.50
2022-10-22T02:53:48.635Z,20.75
2022-10-22T02:56:15.017Z,22.70
2022-10-22T02:58:41.440Z,21.50
2022-10-22T03:01:09.487Z,22.77
2022-10-22T03:03:38.791Z,23.95
2022-10-22T03:06:05.340Z,24.58
2022-10-22T03:08:31.885Z,23.70
2022-10-22T03:10:58.367Z,23.83
2022-10-22T03:13:24.730Z,23.95
2022-10-22T03:15:51.293Z,23.23
2022-10-22T03:18:18.019Z,24.90
2022-10-22T03:20:44.531Z,22.80
2022-10-22T03:23:14.462Z,24.05
2022-10-22T03:25:43.198Z,23.48
2022-10-22T03:28:13.153Z,23.33
2022-10-22T03:30:39.512Z,23.75
2022-10-22T03:33:05.905Z,23.70
2022-10-22T03:35:35.825Z,22.45
2022-10-22T03:38:02.252Z,23.08
2022-10-22T03:40:29.035Z,24.77
2022-10-22T03:42:55.557Z,23.25
2022-10-22T03:45:21.948Z,21.92
2022-10-22T03:47:48.369Z,22.15
2022-10-22T03:50:14.830Z,23.80
2022-10-22T03:52:41.200Z,23.05
2022-10-22T03:55:08.565Z,23.02
2022-10-22T03:57:35.005Z,22.13
2022-10-22T04:00:02.105Z,22.25
2022-10-22T04:02:28.511Z,22.30
2022-10-22T04:04:54.876Z,22.38
2022-10-22T04:07:21.269Z,22.27
2022-10-22T04:09:47.704Z,22.58
2022-10-22T04:12:14.185Z,20.95
2022-10-22T04:14:40.546Z,20.73
2022-10-22T04:17:06.930Z,21.08
2022-10-22T04:19:33.320Z,21.48
2022-10-22T04:21:59.894Z,21.40
2022-10-22T04:24:26.643Z,21.60
2022-10-22T04:26:56.562Z,21.63
2022-10-22T04:29:23.541Z,20.52
2022-10-22T04:31:49.930Z,20.38
2022-10-22T04:34:16.453Z,21.45
2022-10-22T04:36:42.862Z,20.48
2022-10-22T04:39:09.403Z,20.15
2022-10-22T04:41:38.689Z,20.80
2022-10-22T04:44:06.294Z,20.27
2022-10-22T04:46:34.481Z,19.95
2022-10-22T04:49:03.295Z,20.08
2022-10-22T04:51:30.095Z,20.90
2022-10-22T04:53:56.486Z,20.08
2022-10-22T04:56:25.540Z,22.10
2022-10-22T04:59:00.223Z,20.92
2022-10-22T05:01:29.220Z,19.95
2022-10-22T05:03:57.583Z,22.15
2022-10-22T05:06:25.051Z,20.98
2022-10-22T05:11:33.803Z,23.08
2022-10-22T05:14:02.183Z,20.70
2022-10-22T05:16:29.886Z,25.33
2022-10-22T05:18:58.793Z,22.05
2022-10-22T05:21:25.291Z,22.58
2022-10-22T05:23:54.936Z,22.52
2022-10-22T05:26:22.487Z,20.90
2022-10-22T05:33:43.569Z,20.98
2022-10-22T05:36:14.549Z,20.85
2022-10-22T05:38:41.036Z,20.35
2022-10-22T05:41:12.465Z,20.23
2022-10-22T05:43:39.668Z,19.45
2022-10-22T05:46:12.588Z,19.52
2022-10-22T05:48:39.574Z,19.33
2022-10-22T05:51:13.619Z,19.40
2022-10-22T05:53:42.401Z,18.45
2022-10-22T05:56:13.338Z,19.27
2022-10-22T05:58:40.006Z,17.17
2022-10-22T06:01:09.193Z,18.33
2022-10-22T06:03:35.553Z,19.15
2022-10-22T06:06:05.216Z,18.75
2022-10-22T06:08:31.749Z,18.48
2022-10-22T06:10:58.252Z,16.67
2022-10-22T06:13:24.662Z,19.33
2022-10-22T06:15:53.448Z,17.73
2022-10-22T06:18:20.216Z,18.10
2022-10-22T06:20:47.638Z,17.58
2022-10-22T06:23:14.795Z,20.08
2022-10-22T06:25:42.559Z,18.77
2022-10-22T06:28:09.330Z,17.80
2022-10-22T06:30:41.745Z,19.17
2022-10-22T06:33:10.668Z,18.70
2022-10-22T06:35:37.049Z,17.00
2022-10-22T06:38:03.434Z,17.70
2022-10-22T06:40:30.413Z,16.98
2022-10-22T06:42:59.406Z,17.35
2022-10-22T06:45:25.896Z,16.88
2022-10-22T06:47:52.387Z,18.60
2022-10-22T06:50:18.866Z,17.38
2022-10-22T06:52:45.556Z,18.27
2022-10-22T06:55:11.962Z,18.67
2022-10-22T06:57:38.755Z,18.98
2022-10-22T07:00:07.138Z,17.17
2022-10-22T07:02:33.574Z,18.08
2022-10-22T07:04:59.949Z,17.08
2022-10-22T07:07:26.572Z,18.13
2022-10-22T07:09:52.942Z,17.47
2022-10-22T07:12:19.318Z,17.88
2022-10-22T07:14:45.736Z,17.73
2022-10-22T07:17:12.116Z,16.98
2022-10-22T07:19:38.504Z,17.77
2022-10-22T07:22:04.952Z,17.05
2022-10-22T07:24:31.454Z,17.02
2022-10-22T07:26:58.373Z,18.17
2022-10-22T07:29:24.813Z,18.02
2022-10-22T07:31:51.312Z,16.75
2022-10-22T07:34:17.751Z,18.13
2022-10-22T07:36:44.132Z,16.77
2022-10-22T07:39:10.623Z,17.00
2022-10-22T07:41:36.985Z,17.40
2022-10-22T07:44:03.612Z,16.85
2022-10-22T07:46:30.026Z,16.93
2022-10-22T07:48:56.585Z,16.40
2022-10-22T07:51:23.095Z,16.30
2022-10-22T07:53:49.517Z,16.40
2022-10-22T07:56:16.025Z,17.15
2022-10-22T07:58:42.392Z,16.23
2022-10-22T08:01:09.020Z,16.92
2022-10-22T08:03:35.590Z,15.17
2022-10-22T08:06:02.413Z,15.25
2022-10-22T08:08:30.859Z,15.93
2022-10-22T08:10:59.996Z,16.38
2022-10-22T08:13:27.549Z,15.55
2022-10-22T08:18:24.442Z,13.68
2022-10-22T08:20:51.789Z,13.57
2022-10-22T08:23:18.210Z,13.77
2022-10-22T08:25:44.602Z,14.27
2022-10-22T08:28:11.032Z,14.35
2022-10-22T08:30:38.732Z,14.73
2022-10-22T08:33:05.983Z,14.07
2022-10-22T08:35:32.636Z,15.05
2022-10-22T08:37:59.147Z,13.97
2022-10-22T08:40:39.447Z,14.48
2022-10-22T08:43:26.298Z,12.90
2022-10-22T08:46:01.588Z,12.68
2022-10-22T08:48:49.680Z,13.18
2022-10-22T08:51:20.309Z,12.55
2022-10-22T08:53:56.728Z,13.30
2022-10-22T08:56:23.820Z,14.30
2022-10-22T08:59:02.872Z,11.55
2022-10-22T09:01:38.257Z,11.50
2022-10-22T09:04:45.120Z,11.98
2022-10-22T09:07:11.614Z,11.45
2022-10-22T09:09:47.764Z,11.65
2022-10-22T09:12:20.115Z,11.45
2022-10-22T09:14:47.088Z,10.60
2022-10-22T09:17:21.375Z,9.48
2022-10-22T09:20:17.330Z,10.18
2022-10-22T09:23:01.217Z,9.70
2022-10-22T09:25:30.746Z,10.13
2022-10-22T09:27:59.917Z,9.70
2022-10-22T09:30:29.876Z,9.55
2022-10-22T09:33:12.263Z,9.10
2022-10-22T09:35:56.388Z,8.75
2022-10-22T09:38:28.809Z,9.25
2022-10-22T09:40:57.249Z,8.68
2022-10-22T09:43:24.436Z,8.43
2022-10-22T09:46:03.439Z,9.40
2022-10-22T09:48:34.548Z,8.35
2022-10-22T09:51:26.454Z,8.00
2022-10-22T09:54:02.006Z,9.05
2022-10-22T09:56:43.396Z,8.50
2022-10-22T09:59:16.125Z,8.68
2022-10-22T10:01:43.133Z,8.75
2022-10-22T10:04:14.179Z,8.02
2022-10-22T10:06:43.424Z,8.27
2022-10-22T10:09:21.285Z,7.93
2022-10-22T10:12:14.980Z,7.15
2022-10-22T10:15:00.501Z,7.30
2022-10-22T10:17:47.717Z,7.72
2022-10-22T10:20:27.862Z,8.48
2022-10-22T10:23:19.534Z,7.07
2022-10-22T10:25:58.199Z,5.50
2022-10-22T10:28:39.821Z,5.37
2022-10-22T10:31:33.187Z,5.85
2022-10-22T10:34:05.336Z,5.15
2022-10-22T10:36:59.873Z,4.50
2022-10-22T10:39:37.821Z,4.00
2022-10-22T10:42:35.224Z,4.00
2022-10-22T10:45:23.134Z,2.88
2022-10-22T10:47:55.323Z,2.85
2022-10-22T10:50:49.605Z,2.50
2022-10-22T10:53:33.667Z,1.40
2022-10-22T10:56:05.717Z,1.58
2022-10-22T10:58:49.219Z,1.60
2022-10-22T11:01:33.078Z,1.90
2022-10-22T11:04:25.969Z,1.58
2022-10-22T11:07:11.581Z,1.83
2022-10-22T11:10:00.607Z,1.80
2022-10-22T11:12:33.472Z,1.65
2022-10-22T11:15:06.283Z,1.45
2022-10-22T11:17:40.414Z,1.40
2022-10-22T11:20:18.685Z,1.30
2022-10-22T11:23:16.886Z,1.10
2022-10-22T11:25:48.495Z,1.55
2022-10-22T11:28:53.410Z,1.25
2022-10-22T11:31:25.364Z,0.85
2022-10-22T11:34:32.605Z,0.70
2022-10-22T11:37:01.118Z,0.40
2022-10-22T11:39:42.694Z,0.50
2022-10-22T11:42:37.722Z,0.50
2022-10-22T11:45:06.791Z,0.30
2022-10-22T11:47:42.150Z,0.57
2022-10-22T11:50:25.486Z,0.50
2022-10-22T11:53:08.382Z,0.68
2022-10-22T11:55:51.428Z,0.68
2022-10-22T11:58:50.814Z,0.63
2022-10-22T12:01:48.592Z,0.70
2022-10-22T12:04:17.766Z,1.02
2022-10-22T12:07:14.605Z,1.10
2022-10-22T12:12:19.308Z,1.58
2022-10-22T12:15:04.181Z,1.75
2022-10-22T12:17:31.266Z,1.50
2022-10-22T12:20:14.169Z,1.50
2022-10-22T12:22:41.461Z,1.65
2022-10-22T12:27:55.072Z,1.40
2022-10-22T12:30:27.449Z,1.60
2022-10-22T12:33:00.591Z,1.67
2022-10-22T12:35:30.455Z,1.90
2022-10-22T12:38:01.299Z,1.70
2022-10-22T12:40:30.006Z,1.70
2022-10-22T12:43:01.934Z,2.05
2022-10-22T12:45:30.857Z,2.10
2022-10-22T12:47:59.869Z,2.10
2022-10-22T12:50:40.180Z,2.10
2022-10-22T12:53:33.607Z,2.85
2022-10-22T12:56:03.067Z,2.60
2022-10-22T12:58:44.487Z,2.58
2022-10-22T13:01:13.013Z,2.63
2022-10-22T13:03:45.971Z,2.40
2022-10-22T13:06:18.495Z,2.40
2022-10-22T13:09:00.378Z,2.28
2022-10-22T13:11:51.814Z,2.22
2022-10-22T13:14:22.257Z,2.13
2022-10-22T13:17:07.579Z,2.47
2022-10-22T13:19:36.955Z,2.00
2022-10-22T13:22:03.403Z,2.45
2022-10-22T13:24:31.043Z,2.80
2022-10-22T13:26:57.530Z,2.40
2022-10-22T13:29:24.803Z,2.20
2022-10-22T13:31:53.778Z,2.20
2022-10-22T13:34:23.434Z,2.20
2022-10-22T13:36:50.746Z,2.08
2022-10-22T13:39:23.198Z,1.95
2022-10-22T13:41:51.121Z,2.10
2022-10-22T13:44:18.878Z,2.40
2022-10-22T13:46:46.138Z,1.90
2022-10-22T13:49:23.391Z,1.55
2022-10-22T13:51:51.373Z,1.60
2022-10-22T13:54:23.745Z,1.65
2022-10-22T13:56:50.806Z,1.80
2022-10-22T13:59:19.813Z,1.50
2022-10-22T14:01:49.427Z,1.67
2022-10-22T14:04:16.060Z,1.60
2022-10-22T14:06:42.687Z,1.30
2022-10-22T14:09:16.717Z,1.38
2022-10-22T14:11:43.429Z,1.20
2022-10-22T14:14:13.992Z,0.90
2022-10-22T14:16:40.562Z,0.88
2022-10-22T14:19:07.780Z,0.90
2022-10-22T14:21:37.472Z,0.90
2022-10-22T14:24:06.116Z,0.60
2022-10-22T14:26:35.115Z,0.63
2022-10-22T14:29:10.656Z,0.50
2022-10-22T14:31:43.223Z,0.75
2022-10-22T14:34:11.615Z,0.60
2022-10-22T14:39:06.962Z,0.60
2022-10-22T14:41:33.756Z,0.63
2022-10-22T14:44:00.533Z,0.57
2022-10-22T14:46:27.269Z,0.65
2022-10-22T14:48:53.919Z,0.80
2022-10-22T14:51:21.626Z,0.90
2022-10-22T14:53:48.601Z,0.63
2022-10-22T14:56:18.192Z,0.68
2022-10-22T14:58:45.721Z,0.85
2022-10-22T15:01:12.628Z,0.60
2022-10-22T15:03:39.155Z,0.75
2022-10-22T15:06:06.561Z,0.57
2022-10-22T15:11:07.998Z,0.60
2022-10-22T15:13:35.179Z,0.70
2022-10-22T15:16:02.064Z,0.60
2022-10-22T15:18:28.722Z,0.73
2022-10-22T15:21:04.372Z,0.77
2022-10-22T15:23:31.317Z,0.77
2022-10-22T15:25:58.155Z,0.70
2022-10-22T15:28:25.340Z,0.80
2022-10-22T15:30:56.611Z,0.70
2022-10-22T15:33:23.871Z,0.90
2022-10-22T15:35:50.486Z,0.80
2022-10-22T15:38:17.663Z,0.70
2022-10-22T15:40:44.760Z,1.15
2022-10-22T15:43:11.820Z,1.20
2022-10-22T15:45:38.881Z,1.50
2022-10-22T15:48:05.572Z,1.30
2022-10-22T15:50:32.251Z,1.27
2022-10-22T15:52:58.813Z,1.50
2022-10-22T15:55:25.355Z,1.70
2022-10-22T15:57:56.469Z,2.27
2022-10-22T16:00:25.123Z,2.72
2022-10-22T16:02:53.716Z,2.70
2022-10-22T16:05:20.358Z,2.60
2022-10-22T16:07:47.148Z,2.70
2022-10-22T16:10:16.793Z,2.88
2022-10-22T16:12:43.597Z,2.85
2022-10-22T16:15:10.661Z,3.40
2022-10-22T16:17:37.229Z,5.25
2022-10-22T16:20:04.003Z,5.28
2022-10-22T16:22:30.587Z,5.38
2022-10-22T16:24:57.123Z,5.73
2022-10-22T16:27:23.602Z,5.63
2022-10-22T16:29:50.024Z,4.97
2022-10-22T16:32:16.803Z,5.95
2022-10-22T16:34:43.484Z,6.07
2022-10-22T16:37:10.358Z,6.80
2022-10-22T16:39:37.126Z,7.75
2022-10-22T16:42:04.036Z,8.53
2022-10-22T16:44:30.526Z,9.82
2022-10-22T16:46:56.960Z,10.38
2022-10-22T16:49:23.587Z,10.10
2022-10-22T16:51:50.091Z,9.73
2022-10-22T16:54:16.631Z,9.95
2022-10-22T16:56:43.086Z,10.13
2022-10-22T16:59:09.541Z,9.40
2022-10-22T17:01:40.558Z,9.90
2022-10-22T17:04:08.041Z,10.43
2022-10-22T17:06:34.709Z,9.60
2022-10-22T17:09:01.378Z,10.00
2022-10-22T17:11:30.185Z,9.20
2022-10-22T17:13:56.918Z,8.48
2022-10-22T17:16:24.956Z,8.17
2022-10-22T17:18:53.861Z,6.65
2022-10-22T17:21:21.704Z,6.72
2022-10-22T17:23:48.550Z,6.30
2022-10-22T17:26:18.474Z,6.50
2022-10-22T17:28:45.310Z,6.35
2022-10-22T17:31:22.596Z,5.78
2022-10-22T17:36:18.349Z,5.32
2022-10-22T17:38:50.680Z,6.32
2022-10-22T17:41:20.867Z,6.13
2022-10-22T17:43:47.876Z,6.03
2022-10-22T17:46:23.265Z,6.47
2022-10-22T17:48:52.623Z,5.63
2022-10-22T17:51:20.304Z,6.45
2022-10-22T17:53:48.023Z,6.10
2022-10-22T17:56:16.876Z,6.10
2022-10-22T17:58:43.694Z,6.82
2022-10-22T18:01:29.723Z,6.68
2022-10-22T18:04:03.475Z,6.40
2022-10-22T18:06:30.640Z,5.72
2022-10-22T18:08:57.307Z,5.70
2022-10-22T18:11:26.593Z,6.32
2022-10-22T18:13:55.240Z,13.20
2022-10-22T18:16:21.934Z,6.97
2022-10-22T18:18:49.857Z,7.28
2022-10-22T18:21:17.537Z,6.90
2022-10-22T18:23:45.020Z,6.95
2022-10-22T18:28:38.018Z,6.40
2022-10-22T18:31:09.259Z,5.97
2022-10-22T18:33:36.873Z,6.57
2022-10-22T18:36:05.995Z,6.65
2022-10-22T18:38:33.422Z,6.63
2022-10-22T18:41:00.368Z,6.15
2022-10-22T18:43:27.233Z,6.32
2022-10-22T18:45:53.688Z,7.05
2022-10-22T18:48:22.784Z,8.07
2022-10-22T18:51:03.036Z,6.93
2022-10-22T18:53:29.657Z,6.38
2022-10-22T18:55:57.653Z,6.33
2022-10-22T18:58:24.238Z,10.25
2022-10-22T19:00:51.152Z,8.13
2022-10-22T19:03:17.836Z,7.55
2022-10-22T19:05:49.919Z,8.27
2022-10-22T19:08:19.627Z,9.32
2022-10-22T19:10:47.258Z,8.80
2022-10-22T19:13:15.869Z,9.93
2022-10-22T19:15:42.823Z,9.07
2022-10-22T19:18:10.482Z,9.27
2022-10-22T19:20:37.495Z,9.93
2022-10-22T19:23:04.481Z,9.93
2022-10-22T19:25:30.956Z,10.00
2022-10-22T19:27:57.425Z,9.80
2022-10-22T19:30:24.277Z,9.02
2022-10-22T19:32:50.811Z,8.93
2022-10-22T19:35:17.727Z,8.82
2022-10-22T19:37:48.266Z,9.20
2022-10-22T19:40:15.418Z,8.68
2022-10-22T19:42:47.170Z,9.27
2022-10-22T19:45:13.635Z,8.30
2022-10-22T19:47:40.380Z,8.50
2022-10-22T19:50:06.979Z,8.65
2022-10-22T19:52:33.511Z,8.00
2022-10-22T19:55:00.025Z,7.78
2022-10-22T19:57:26.515Z,8.55
2022-10-22T19:59:52.990Z,8.20
2022-10-22T20:02:19.685Z,7.40
2022-10-22T20:04:49.274Z,7.00
2022-10-22T20:07:16.502Z,8.02
2022-10-22T20:09:42.929Z,7.68
2022-10-22T20:12:09.324Z,7.65
2022-10-22T20:14:36.138Z,7.53
2022-10-22T20:17:02.635Z,7.38
2022-10-22T20:19:29.838Z,8.07
2022-10-22T20:21:56.567Z,7.65
2022-10-22T20:24:23.093Z,8.35
2022-10-22T20:26:49.641Z,8.43
2022-10-22T20:29:19.051Z,8.23
2022-10-22T20:31:46.495Z,7.70
2022-10-22T20:34:13.261Z,8.60
2022-10-22T20:36:40.564Z,8.50
2022-10-22T20:39:10.879Z,7.80
2022-10-22T20:41:40.675Z,8.55
2022-10-22T20:44:11.515Z,8.02
2022-10-22T20:46:38.418Z,8.15
2022-10-22T20:49:09.097Z,8.18
2022-10-22T20:51:37.048Z,7.65
2022-10-22T20:54:05.351Z,7.65
2022-10-22T20:56:32.457Z,7.30
2022-10-22T20:59:06.150Z,8.02
2022-10-22T21:01:39.250Z,7.97
2022-10-22T21:04:07.262Z,7.45
2022-10-22T21:06:38.364Z,7.68
2022-10-22T21:09:12.403Z,8.20
2022-10-22T21:11:40.795Z,7.72
2022-10-22T21:14:09.666Z,8.15
2022-10-22T21:16:41.343Z,6.97
2022-10-22T21:19:08.176Z,7.40
2022-10-22T21:21:34.943Z,7.53
2022-10-22T21:24:01.654Z,7.47
2022-10-22T21:26:28.860Z,7.30
2022-10-22T21:28:58.170Z,6.25
2022-10-22T21:31:26.534Z,6.75
2022-10-22T21:33:54.049Z,6.50
2022-10-22T21:38:53.984Z,6.00
2022-10-22T21:41:23.022Z,6.88
2022-10-22T21:43:50.736Z,6.63
2022-10-22T21:46:18.917Z,6.35
2022-10-22T21:48:46.021Z,6.90
2022-10-22T21:51:18.621Z,6.82
2022-10-22T21:53:46.325Z,6.43
2022-10-22T21:56:33.781Z,6.75
2022-10-22T21:59:01.814Z,5.80
2022-10-22T22:01:28.823Z,6.05
2022-10-22T22:03:55.669Z,6.22
2022-10-22T22:06:28.268Z,6.60
2022-10-22T22:09:00.755Z,6.35
2022-10-22T22:11:29.139Z,5.97
2022-10-22T22:13:58.270Z,6.13
2022-10-22T22:16:28.832Z,6.30
2022-10-22T22:18:58.681Z,6.30
2022-10-22T22:21:25.464Z,6.03
2022-10-22T22:23:52.224Z,5.95
2022-10-22T22:26:26.690Z,7.40
2022-10-22T22:28:57.000Z,5.72
2022-10-22T22:33:57.794Z,5.75
2022-10-22T22:36:24.439Z,5.68
2022-10-22T22:38:55.444Z,6.87
2022-10-22T22:41:22.251Z,5.82
2022-10-22T22:43:49.259Z,6.13
2022-10-22T22:46:16.568Z,5.60
2022-10-22T22:48:43.304Z,6.10
2022-10-22T22:51:10.276Z,5.85
2022-10-22T22:53:37.240Z,6.10
2022-10-22T22:56:13.964Z,5.40
2022-10-22T22:58:41.501Z,5.72
2022-10-22T23:03:57.699Z,6.00
2022-10-22T23:06:27.282Z,5.93
2022-10-22T23:08:54.326Z,6.60
2022-10-22T23:11:22.208Z,5.72
2022-10-22T23:13:56.480Z,6.15
2022-10-22T23:16:25.254Z,6.35
2022-10-22T23:18:53.823Z,6.53
2022-10-22T23:21:23.558Z,6.15
2022-10-22T23:23:53.074Z,6.10
2022-10-22T23:26:26.688Z,5.78
2022-10-22T23:28:53.560Z,5.43
2022-10-22T23:31:21.962Z,5.95
2022-10-22T23:33:48.812Z,5.80
2022-10-22T23:36:16.034Z,5.57
2022-10-22T23:38:42.984Z,5.32
2022-10-22T23:41:10.031Z,5.13
2022-10-22T23:43:37.768Z,6.03
2022-10-22T23:46:09.862Z,5.55
2022-10-22T23:48:37.933Z,5.30
2022-10-22T23:51:16.037Z,5.93
2022-10-22T23:53:47.084Z,5.32
2022-10-22T23:56:16.647Z,5.30
2022-10-22T23:58:43.913Z,4.75
